Detroit Metropolitan Wayne County Airport
KDTW : now visible

Airfield :











YOU CAN JOIN US ON...

 
LOGIN :

Register | Disclaimer

   EN    FR    IT 

 









Legend :    VFR   Marginal VFR   IFR   Intensive IFR   Very Intensive IFR
Visi :
Ceiling :
>= 8 km
>= 3000ft
5 to 8 km
1000 to 3000 ft
1500m to 5 km
500 to 1000 ft
800 to 1500m
200 to 500 ft
< 800m
< 200 ft
Symbols :   Thunderstorms  Fog  Heavy snow  Heavy precipitations  Wind > 20 kt







- Airport Elevation : 645 ft
- IATA code : DTW


KDTW - Detroit Metropolitan Wayne County

CURRENT METAR :
  • 212053Z 17009KT 8SM FEW030 SCT040 BKN200 28/22 A3010 RMK AO2 LTG DSNT W SLP187 60023 T02830217 58015 $

EXPIRED METARs :
  • 211953Z 14007KT 8SM FEW030 SCT040 BKN210 28/22 A3011 RMK AO2 TSE00 SLP192 TS MOV E T02830217 $
  • 211902Z 04004KT 8SM FEW030 SCT065 BKN180 27/22 A3013 RMK AO2 TSE00 OCNL LTGIC DSNT NE TS MOV E CB DSNT NE MOV E T02720217 $
  • 211853Z COR 04003KT 7SM TS FEW030CB SCT065 BKN180 27/22 A3014 RMK AO2 RAE19 SLP201 OCNL LTGIC N-E TS N-E MOV E P0023 T02720217 $

TAF KDTW
Valid from the 21 at 21:00 until the 23 at 00:00 UTC


212107Z 2121/2224 20008KT P6SM VCTS SCT045CB BKN060 OVC150
TEMPO 2121/2123 23015G30KT 2SM TSRA OVC030CB
FM220000 19008KT P6SM BKN150
FM221500 22014G22KT P6SM SCT060 BKN200
No reported NOTAMs for that airfield.



MET'MAP, your aeronautical weather chart ! - Copyright ORBIFLY December 2007 - Disclaimer

ORBIFLY MET'MAP TEAM :

Programming & Development : Alexandra Zaïnal
Concept & Development : Baudouin d'Aumeries
Co-Development & Prog : Marc-Olivier Méhu
Technical & hardware support : Manuel Goepfert

Contact : metmap@orbifly.com




SOURCES & CREDITS :

   NOAA       Earth
Advisory